Van Buren, IN (46991)

7:45 AM EDT on July 07, 2015 (GMT -0400)
Duggan's Place | | Change Station
CLOSE
Current Station
Personal Weather Station
Location: Van Buren, IN
Elevation: 853 ft
Nearby Weather Stations

Elev 853 ft 40.61 °N, 85.55 °W | Updated 4 minutes ago

Mostly Cloudy
Mostly Cloudy
75.7 °F
Feels Like 76 °F
N
7.3
Wind Variable Wind from South

Today
High -- | Low -- °F
--% Chance of Precip.
Yesterday
High -- | Low -- °F
Precip. -- in
6:18 AM 9:15 PM
Waning Gibbous, 65% visible
Pressure 29.91 in
Visibility 7.0 miles
Clouds Mostly Cloudy 1600 ft
Heat Index 76 °F
Dew Point 71 °F
Humidity 86%
Rainfall 0.00 in
Snow Depth Not available.
UV 0 out of 12
Pollen .50 out of 12
Air Quality Not available.
Flu Activity Not available.
METAR KMZZ 071135Z AUTO 21009KT 7SM BKN016 24/22 A2991 RMK AO2 T02380219

More Conditions Fewer Conditions

Pressure 29.91 in
Visibility 7.0 miles
Clouds Mostly Cloudy 1600 ft
Heat Index 76 °F
Dew Point 71 °F
Humidity 86%
Rainfall 0.00 in
Snow Depth Not available.
UV 0 out of 12
Pollen .50 out of 12
Air Quality Not available.
Flu Activity Not available.
METAR KMZZ 071135Z AUTO 21009KT 7SM BKN016 24/22 A2991 RMK AO2 T02380219

More Conditions Fewer Conditions

10-Day Weather Forecast

×

Almanac

Astronomy

Jul. 07, 2015 Rise Set
Actual Time
Civil Twilight
Nautical Twilight
Astronomical Twilight
Moon
Length of Visible Light
Length of Day
Tomorrow will be .
, % of the Moon is Illuminated

Today's Extremes

State Highs State Lows

Community

WunderPhotos

Upload Photos

1,835,770 photos uploaded!

WunderBlogs® & News

Nearby

Air Quality

  Air Quality AQ Index Pollutant
Not available.

Snow Depth

Station Depth Elevation

Earthquake Activity

City Distance Mag. Time & Date
Minimum magnitude displayed is 2.5.

Coastal Water Temperatures

Place Temperature

Stations

Nearby Weather Stations

Station Location Temp. Windchill Dew Point Humidity Wind Precip. Elev Updated Type